No particular awareness of the weather is required.    There are no Weather-warnings


Meteo18 Weather Cam more information Meteo18 Weather Cam


Thunder radar more information blitzortung!


Rain radar more information rain snow radar


Visit our other weather sites:

Template documentation
and downloads

And another site



Weather Underground History page Text

Daily Summary for March 31, 2017 Units:  English    Metric   Both
« Previous Day
Next Day »
Daily Weekly Monthly Yearly Custom
  High: Low: Average:
Temperature: 62.4 °F 48.2 °F 55 °F
Dew Point: 52.3 °F 37.6 °F 46.4 °F
Humidity: 95 % 48 % 73 %
Wind Speed: 16 mph 0 mph 2.7 mph
Wind Gust: 22 mph - -
Wind:- - SSW
Pressure: 30.1 in 30 in -
Precipitation: 0.16 in    
Historical Graphs
 
 
Tabular Data for March 31, 2017
Time Temperature Dew Point Pressure Wind Wind Speed Wind Gust Humidity Rainfall Rate (Hourly)
00:02 57 °F 46.6 °F 30.1 in Calm     68 % 0 in
00:07 56.8 °F 46.4 °F 30.1 in Calm     68 % 0 in
00:12 56.5 °F 46.4 °F 30.1 in Calm     69 % 0 in
00:17 56.5 °F 46.4 °F 30.1 in Calm     69 % 0 in
00:22 56.3 °F 46.6 °F 30.1 in Calm     70 % 0 in
00:32 56.7 °F 46.9 °F 30.1 in Calm     70 % 0 in
00:37 57.6 °F 47.1 °F 30.1 in Calm     68 % 0 in
00:42 57.7 °F 46.9 °F 30.1 in Calm     67 % 0 in
00:52 57.6 °F 46.8 °F 30.1 in Calm     67 % 0 in
00:57 57 °F 46.6 °F 30.1 in Calm     68 % 0 in
01:02 56.5 °F 46.4 °F 30.1 in Calm     69 % 0 in
01:12 55.8 °F 46 °F 30.1 in Calm     70 % 0 in
01:17 55 °F 45.9 °F 30.1 in Calm     71 % 0 in
01:22 54.7 °F 45.9 °F 30.1 in Calm     72 % 0 in
01:27 54.3 °F 45.9 °F 30.1 in Calm     73 % 0 in
01:32 54.3 °F 46.2 °F 30.1 in Calm     74 % 0 in
01:42 54.7 °F 46.6 °F 30.1 in West 1 mph   74 % 0 in
01:47 55.2 °F 47.5 °F 30.1 in Calm   2 mph 75 % 0 in
01:52 55.9 °F 47.5 °F 30.1 in WSW 1 mph 2 mph 73 % 0 in
02:02 56.5 °F 47.5 °F 30.1 in Calm   2 mph 72 % 0 in
02:12 55.9 °F 47.1 °F 30.1 in Calm   1 mph 72 % 0 in
02:17 55.4 °F 46.6 °F 30.1 in Calm   1 mph 72 % 0 in
02:22 54.5 °F 46.4 °F 30.1 in Calm   1 mph 74 % 0 in
02:32 54.7 °F 46.9 °F 30.1 in ENE 1 mph 2 mph 75 % 0 in
02:42 54.5 °F 46.4 °F 30.1 in Calm   2 mph 74 % 0 in
02:47 54.7 °F 46.2 °F 30.1 in Calm   1 mph 73 % 0 in
02:52 54.7 °F 46.2 °F 30.1 in North 2 mph 2 mph 73 % 0 in
02:57 54 °F 46.2 °F 30.1 in Calm   2 mph 75 % 0 in
03:07 54.3 °F 45.5 °F 30.1 in Calm   2 mph 72 % 0 in
03:12 54.1 °F 46 °F 30.1 in Calm   2 mph 74 % 0 in
03:17 53.6 °F 45.5 °F 30.1 in Calm   1 mph 74 % 0 in
03:22 53.2 °F 45.1 °F 30.1 in Calm   1 mph 74 % 0 in
03:32 52.5 °F 45.1 °F 30.1 in Calm     76 % 0 in
03:42 52 °F 45.3 °F 30.1 in Calm     78 % 0 in
03:47 51.8 °F 45.1 °F 30.1 in Calm     78 % 0 in
03:52 52.3 °F 44.6 °F 30.1 in Calm   1 mph 75 % 0 in
03:57 52.3 °F 44.2 °F 30.1 in Calm   1 mph 74 % 0 in
04:02 52 °F 44.2 °F 30.1 in Calm   1 mph 75 % 0 in
04:12 51.3 °F 44.2 °F 30.1 in Calm   1 mph 77 % 0 in
04:17 51.1 °F 44.1 °F 30.1 in Calm     77 % 0 in
04:22 50.9 °F 43.9 °F 30.1 in Calm     77 % 0 in
04:27 50.9 °F 43.9 °F 30.1 in NE 1 mph   77 % 0 in
04:32 50.7 °F 43.7 °F 30.1 in Calm     77 % 0 in
04:42 50.4 °F 44.1 °F 30.1 in Calm   1 mph 79 % 0 in
04:47 50.4 °F 44.1 °F 30.1 in Calm   1 mph 79 % 0 in
04:52 50.5 °F 43.9 °F 30.1 in Calm   1 mph 78 % 0 in
04:57 50.7 °F 44.1 °F 30.1 in Calm   1 mph 78 % 0 in
05:02 50.4 °F 43.2 °F 30.1 in Calm     76 % 0 in
05:12 50.2 °F 43.5 °F 30.1 in Calm     78 % 0 in
05:22 50.2 °F 41.9 °F 30 in Calm     73 % 0 in
05:32 49.3 °F 42.1 °F 30 in Calm     76 % 0 in
05:37 49.3 °F 41.7 °F 30 in Calm     75 % 0 in
05:42 49.6 °F 41.7 °F 30 in Calm     74 % 0 in
05:52 49.6 °F 42.1 °F 30 in Calm     75 % 0 in
06:02 48.7 °F 41.2 °F 30 in Calm     75 % 0 in
06:12 48.9 °F 40.3 °F 30 in Calm     72 % 0 in
06:17 48.9 °F 39.9 °F 30 in Calm     71 % 0 in
06:22 49.1 °F 39.7 °F 30 in Calm     70 % 0 in
06:32 48.7 °F 39.4 °F 30 in Calm     70 % 0 in
06:37 48.6 °F 38.8 °F 30 in Calm     69 % 0 in
06:42 48.6 °F 38.5 °F 30 in Calm     68 % 0 in
06:47 48.9 °F 38.8 °F 30 in Calm     68 % 0 in
06:52 48.9 °F 38.5 °F 30 in Calm     67 % 0 in
07:02 49.6 °F 37.6 °F 30 in Calm     63 % 0 in
07:07 49.3 °F 37.9 °F 30 in Calm     65 % 0 in
07:12 49.3 °F 37.9 °F 30 in Calm     65 % 0 in
07:17 49.5 °F 37.8 °F 30 in Calm     64 % 0 in
07:22 49.3 °F 37.6 °F 30 in Calm     64 % 0 in
07:27 48.9 °F 37.8 °F 30 in Calm     65 % 0 in
07:32 48.7 °F 37.6 °F 30 in Calm     65 % 0 in
07:42 48.4 °F 37.9 °F 30.1 in NW 2 mph   67 % 0 in
07:47 48.7 °F 37.6 °F 30 in NW 1 mph   65 % 0 in
07:57 49.3 °F 37.6 °F 30 in Calm   2 mph 64 % 0 in
08:02 48.7 °F 37.6 °F 30.1 in Calm   1 mph 65 % 0 in
08:12 48.4 °F 37.9 °F 30.1 in Calm   1 mph 67 % 0 in
08:17 48.2 °F 38.1 °F 30.1 in South 1 mph 1 mph 68 % 0 in
08:22 48.4 °F 38.3 °F 30.1 in South 1 mph 2 mph 68 % 0 in
08:32 48.9 °F 38.1 °F 30.1 in Calm   2 mph 66 % 0 in
08:37 48.9 °F 38.1 °F 30.1 in Calm   2 mph 66 % 0 in
08:42 49.3 °F 38.8 °F 30.1 in Calm   1 mph 67 % 0 in
08:47 49.3 °F 38.8 °F 30.1 in Calm   1 mph 67 % 0 in
08:52 49.5 °F 39 °F 30.1 in Calm   2 mph 67 % 0 in
09:02 49.8 °F 40.1 °F 30.1 in Calm   2 mph 69 % 0 in
09:12 50.7 °F 40.5 °F 30.1 in Calm   3 mph 68 % 0 in
09:17 51.1 °F 40.8 °F 30.1 in South 1 mph 3 mph 68 % 0 in
09:22 51.3 °F 41 °F 30.1 in Calm   3 mph 68 % 0 in
09:32 52.2 °F 41.5 °F 30.1 in South 2 mph 3 mph 67 % 0 in
09:37 52.5 °F 41.5 °F 30.1 in SSW 3 mph 3 mph 66 % 0 in
09:42 53.1 °F 42.1 °F 30.1 in SSW 2 mph 5 mph 66 % 0 in
09:47 53.4 °F 42.3 °F 30.1 in South 4 mph 5 mph 66 % 0 in
09:52 54.1 °F 41.9 °F 30.1 in South 3 mph 6 mph 63 % 0 in
10:02 55 °F 42.3 °F 30.1 in South 4 mph 7 mph 62 % 0 in
10:12 55.6 °F 42.8 °F 30.1 in SSW 1 mph 7 mph 62 % 0 in
10:22 56.5 °F 42.3 °F 30.1 in SSW 2 mph 7 mph 59 % 0 in
10:32 57.4 °F 43.7 °F 30.1 in SE 3 mph 7 mph 60 % 0 in
10:42 58.3 °F 43.5 °F 30.1 in SE 4 mph 6 mph 58 % 0 in
10:47 58.6 °F 43.9 °F 30.1 in SW 6 mph 6 mph 58 % 0 in
10:52 59 °F 44.8 °F 30.1 in SE 3 mph 8 mph 59 % 0 in
10:57 59.9 °F 44.2 °F 30.1 in SSW 5 mph 8 mph 56 % 0 in
11:02 60.4 °F 43.2 °F 30.1 in SSW 7 mph 7 mph 53 % 0 in
11:07 61.2 °F 43 °F 30.1 in SW 8 mph 8 mph 51 % 0 in
11:12 62.1 °F 43.2 °F 30.1 in WSW 12 mph 17 mph 50 % 0 in
11:17 62.4 °F 42.4 °F 30.1 in WSW 5 mph 17 mph 48 % 0 in
11:22 62.1 °F 42.1 °F 30.1 in WSW 7 mph 17 mph 48 % 0 in
11:27 61.7 °F 43.3 °F 30.1 in SW 13 mph 17 mph 51 % 0 in
11:37 61.3 °F 43.5 °F 30.1 in SW 10 mph 17 mph 52 % 0 in
11:42 61.2 °F 43.3 °F 30.1 in SW 16 mph 19 mph 52 % 0 in
11:47 60.8 °F 44.1 °F 30.1 in SW 12 mph 19 mph 54 % 0 in
11:52 60.4 °F 43.7 °F 30.1 in WSW 7 mph 19 mph 54 % 0 in
12:02 60.6 °F 44.4 °F 30.1 in WSW 7 mph 16 mph 55 % 0 in
12:12 61.3 °F 45 °F 30.1 in SW 11 mph 17 mph 55 % 0 in
12:17 61.5 °F 45.7 °F 30.1 in WSW 13 mph 17 mph 56 % 0 in
12:22 61.5 °F 46.2 °F 30.1 in South 4 mph 17 mph 57 % 0 in
12:32 61.3 °F 47.3 °F 30.1 in WSW 6 mph 22 mph 60 % 0 in
12:42 60.4 °F 46.9 °F 30.1 in SSW 6 mph 18 mph 61 % 0 in
12:47 60.6 °F 47.1 °F 30.1 in SW 6 mph 18 mph 61 % 0 in
12:52 60.6 °F 47.5 °F 30.1 in WSW 7 mph 18 mph 62 % 0 in
13:02 60.1 °F 47.5 °F 30.1 in West 6 mph 15 mph 63 % 0 in
13:07 59.7 °F 48 °F 30.1 in West 3 mph 15 mph 65 % 0 in
13:12 59.7 °F 48 °F 30.1 in SW 10 mph 12 mph 65 % 0 in
13:22 59.5 °F 47.8 °F 30.1 in WSW 7 mph 12 mph 65 % 0 in
13:32 58.6 °F 48.9 °F 30.1 in SW 8 mph 13 mph 70 % 0 in
13:37 58.5 °F 49.1 °F 30.1 in SW 10 mph 13 mph 71 % 0 in
13:42 58.6 °F 48.9 °F 30.1 in WSW 4 mph 12 mph 70 % 0 in
13:52 59.4 °F 50 °F 30.1 in SW 5 mph 10 mph 71 % 0 in
14:02 60.3 °F 48.9 °F 30.1 in SSW 8 mph 11 mph 66 % 0 in
14:07 60.3 °F 49.3 °F 30.1 in SW 7 mph 11 mph 67 % 0 in
14:12 60.4 °F 49.5 °F 30.1 in SSW 10 mph 13 mph 67 % 0 in
14:17 60.6 °F 49.3 °F 30.1 in SSW 6 mph 14 mph 66 % 0 in
14:27 60.8 °F 49.5 °F 30.1 in SSW 6 mph 15 mph 66 % 0 in
14:32 61 °F 49.1 °F 30.1 in SW 9 mph 15 mph 65 % 0 in
14:37 60.6 °F 48.7 °F 30.1 in SSW 5 mph 15 mph 65 % 0 in
14:42 60.6 °F 48.7 °F 30.1 in SSW 6 mph 15 mph 65 % 0 in
14:47 60.6 °F 48.4 °F 30.1 in SW 5 mph 14 mph 64 % 0 in
14:52 60.6 °F 48.7 °F 30.1 in West 5 mph 14 mph 65 % 0 in
14:57 60.6 °F 48.7 °F 30.1 in WSW 5 mph 13 mph 65 % 0 in
15:02 60.8 °F 49.5 °F 30.1 in WSW 7 mph 13 mph 66 % 0 in
15:12 59 °F 49.6 °F 30.1 in West 8 mph 16 mph 71 % 0 in
15:17 58.3 °F 50 °F 30.1 in West 11 mph 16 mph 74 % 0 in
15:22 57.9 °F 50.4 °F 30.1 in WSW 3 mph 16 mph 76 % 0 in
15:32 58.1 °F 49.8 °F 30.1 in West 10 mph 16 mph 74 % 0 in
15:42 58.3 °F 49.6 °F 30.1 in SW 4 mph 12 mph 73 % 0 in
15:47 58.5 °F 49.5 °F 30.1 in WSW 6 mph 14 mph 72 % 0 in
15:52 58.8 °F 50.2 °F 30.1 in SW 8 mph 14 mph 73 % 0 in
16:02 58.8 °F 49.5 °F 30.1 in SW 12 mph 12 mph 71 % 0 in
16:12 59 °F 50.7 °F 30.1 in SW 9 mph 13 mph 74 % 0 in
16:17 58.8 °F 49.5 °F 30.1 in SW 9 mph 13 mph 71 % 0 in
16:22 58.8 °F 49.1 °F 30.1 in SW 10 mph 13 mph 70 % 0 in
16:32 58.8 °F 49.5 °F 30.1 in South 7 mph 14 mph 71 % 0 in
16:37 59 °F 50 °F 30.1 in SW 8 mph 14 mph 72 % 0 in
16:42 59 °F 49.6 °F 30.1 in SSW 5 mph 14 mph 71 % 0 in
16:47 59.2 °F 50.2 °F 30.1 in SSW 7 mph 13 mph 72 % 0 in
16:52 59.2 °F 50.2 °F 30.1 in SW 5 mph 13 mph 72 % 0 in
16:57 59.2 °F 49.8 °F 30.1 in SSW 12 mph 13 mph 71 % 0 in
17:02 59 °F 50 °F 30.1 in SSW 6 mph 13 mph 72 % 0 in
17:12 58.8 °F 49.8 °F 30.1 in SW 5 mph 13 mph 72 % 0 in
17:17 58.8 °F 49.5 °F 30 in SSW 9 mph 13 mph 71 % 0 in
17:22 58.6 °F 49.6 °F 30.1 in SSW 6 mph 13 mph 72 % 0 in
17:32 58.5 °F 50.2 °F 30.1 in SSW 3 mph 12 mph 74 % 0 in
17:42 57.9 °F 50.4 °F 30.1 in SW 4 mph 11 mph 76 % 0 in
17:52 57.4 °F 51.3 °F 30 in SW 4 mph 11 mph 80 % 0 in
17:57 57 °F 51.6 °F 30 in SW 5 mph 11 mph 82 % 0 in
18:02 56.7 °F 51.6 °F 30 in SW 2 mph 10 mph 83 % 0.01 in
18:12 56.3 °F 51.3 °F 30 in SW 4 mph 8 mph 83 % 0.01 in
18:17 56.1 °F 51.1 °F 30 in SW 3 mph 7 mph 83 % 0.01 in
18:22 56.1 °F 51.4 °F 30 in SW 6 mph 7 mph 84 % 0.01 in
18:32 56.1 °F 51.6 °F 30 in South 2 mph 7 mph 85 % 0.01 in
18:42 56.1 °F 52.3 °F 30 in SW 4 mph 7 mph 87 % 0.01 in
18:52 56.1 °F 52.3 °F 30 in SSW 3 mph 6 mph 87 % 0.01 in
19:02 55.9 °F 51.8 °F 30 in South 1 mph 6 mph 86 % 0.01 in
19:12 55.8 °F 51.6 °F 30 in Calm   4 mph 86 % 0.01 in
19:17 55.8 °F 51.6 °F 30 in Calm   3 mph 86 % 0.01 in
19:22 55.8 °F 51.6 °F 30 in Calm   2 mph 86 % 0.01 in
19:32 55.6 °F 51.8 °F 30 in Calm   1 mph 87 % 0.01 in
19:42 55.4 °F 51.3 °F 30 in Calm   1 mph 86 % 0.01 in
19:52 55.4 °F 51.6 °F 30 in Calm     87 % 0.01 in
19:57 55.2 °F 51.1 °F 30 in Calm     86 % 0 in
20:02 55.2 °F 51.1 °F 30 in Calm     86 % 0 in
20:12 55 °F 50.9 °F 30 in Calm     86 % 0 in
20:17 54.9 °F 51.1 °F 30 in Calm     87 % 0 in
20:22 54.9 °F 51.1 °F 30 in Calm   1 mph 87 % 0 in
20:32 54.7 °F 50.9 °F 30 in Calm   1 mph 87 % 0 in
20:42 54.7 °F 50.9 °F 30 in SW 1 mph   87 % 0 in
20:47 54.5 °F 51.1 °F 30 in Calm   3 mph 88 % 0 in
20:52 54.5 °F 51.1 °F 30 in Calm   3 mph 88 % 0 in
20:57 54.3 °F 50.9 °F 30 in SSW 1 mph 3 mph 88 % 0 in
21:02 54.1 °F 50.9 °F 30 in Calm   3 mph 89 % 0 in
21:12 54 °F 51.1 °F 30 in Calm   2 mph 90 % 0 in
21:17 53.8 °F 50.9 °F 30 in Calm   1 mph 90 % 0 in
21:22 53.8 °F 51.3 °F 30 in Calm   1 mph 91 % 0.01 in
21:32 53.6 °F 51.1 °F 30 in Calm   1 mph 91 % 0.01 in
21:42 53.4 °F 51.1 °F 30 in Calm   2 mph 92 % 0.02 in
21:47 53.4 °F 51.4 °F 30 in Calm   2 mph 93 % 0.02 in
21:52 53.2 °F 51.3 °F 30 in Calm   2 mph 93 % 0.02 in
21:57 53.2 °F 51.3 °F 30 in Calm   2 mph 93 % 0.02 in
22:02 53.2 °F 51.3 °F 30 in Calm   2 mph 93 % 0.02 in
22:12 53.1 °F 51.1 °F 30 in Calm   2 mph 93 % 0.02 in
22:17 52.9 °F 51.3 °F 30 in Calm   1 mph 94 % 0.02 in
22:22 52.9 °F 51.3 °F 30 in Calm   1 mph 94 % 0.02 in
22:32 52.9 °F 51.3 °F 30 in Calm   1 mph 94 % 0.02 in
22:37 52.9 °F 51.3 °F 30 in SE 1 mph 2 mph 94 % 0.02 in
22:42 52.9 °F 51.3 °F 30 in Calm   2 mph 94 % 0.02 in
22:52 52.7 °F 51.1 °F 30 in SSW 2 mph 3 mph 94 % 0.01 in
22:57 52.7 °F 51.1 °F 30 in SSW 1 mph 5 mph 94 % 0.02 in
23:02 52.5 °F 50.9 °F 30 in SSW 2 mph 5 mph 94 % 0.02 in
23:12 52.5 °F 51.1 °F 30 in SSW 2 mph 5 mph 95 % 0.04 in
23:17 52.5 °F 51.1 °F 30 in South 3 mph 4 mph 95 % 0.06 in
23:22 52.5 °F 51.1 °F 30 in SSW 3 mph 4 mph 95 % 0.06 in
23:32 52.3 °F 50.9 °F 30 in SW 2 mph 6 mph 95 % 0.07 in
23:42 52.3 °F 50.9 °F 30 in South 2 mph 6 mph 95 % 0.08 in
23:47 52.3 °F 50.9 °F 30 in SSW 4 mph 5 mph 95 % 0.09 in
23:52 52.3 °F 50.9 °F 30 in SSW 2 mph 5 mph 95 % 0.09 in
23:57 52.2 °F 50.7 °F 30 in SSW 2 mph 6 mph 95 % 0.09 in
Meteo18
Compliments of Weather Underground - 4 mb

Script developed by  Jim McMurry - jmcmurry@mwt.net Adapted for the template by  Wim van der Kuil - Leuven-Template.eu

You find our weather info also at:

European Weather Network

Weather Underground

Equipment we use:

Weather-station
Davis Vue

Weather-program
Meteohub

Weather-server
Raspberry PI 2 B+

Provider
1 and 1

Davis Vue

Meteohub

Raspberry PI 2 B+

1 and 1